Time;durP1;ratioP1;P1;durP2;ratioP2;P2;SDS_P1;SDS_P2;PMS_P1;PMS_P2;Temp;Humidity;BMP_temperature;BMP_pressure;BME280_temperature;BME280_humidity;BME280_pressure;Samples;Min_cycle;Max_cycle;Signal;HPM_P1;HPM_P2
2024/01/01 00:02:19;;;;;;;54.45;36.25;;;;;;;11.19;84.77;100939.66;5087769;28;20028;-76
2024/01/01 00:04:45;;;;;;;58.80;38.85;;;;;;;11.12;85.31;100941.13;5087756;28;20032;-76
2024/01/01 00:07:10;;;;;;;52.33;35.95;;;;;;;11.14;85.40;100939.16;5088409;28;20044;-75
2024/01/01 00:09:36;;;;;;;65.05;40.63;;;;;;;11.20;85.26;100941.34;5086768;28;20042;-74
2024/01/01 00:12:01;;;;;;;69.47;41.33;;;;;;;11.28;85.62;100944.31;5088793;28;20028;-75
2024/01/01 00:14:27;;;;;;;74.93;43.70;;;;;;;11.24;85.42;100945.53;5088669;28;20040;-76
2024/01/01 00:16:52;;;;;;;80.43;44.72;;;;;;;11.24;84.92;100943.69;5089218;28;20023;-78
2024/01/01 00:19:18;;;;;;;71.72;43.20;;;;;;;11.15;84.68;100928.28;5087732;28;20510;-76
2024/01/01 00:21:43;;;;;;;88.93;44.40;;;;;;;11.26;84.68;100951.63;5088029;28;20103;-75
2024/01/01 00:24:09;;;;;;;63.30;40.20;;;;;;;11.27;84.96;100946.16;5088389;28;20031;-76
2024/01/01 00:26:34;;;;;;;62.25;36.83;;;;;;;11.29;84.37;100946.00;5089692;28;20087;-77
2024/01/01 00:29:01;;;;;;;52.03;34.60;;;;;;;11.32;84.21;100951.16;5088731;28;20055;-75
2024/01/01 00:31:26;;;;;;;58.60;36.60;;;;;;;11.17;84.28;100925.44;5088427;28;20101;-77
2024/01/01 00:33:52;;;;;;;59.15;38.45;;;;;;;11.34;84.02;100949.22;5098806;28;20016;-75
2024/01/01 00:36:17;;;;;;;67.90;38.58;;;;;;;11.26;83.99;100940.88;5092800;28;20024;-76
2024/01/01 00:38:44;;;;;;;66.35;36.90;;;;;;;11.30;83.99;100958.50;5087425;28;20028;-74
2024/01/01 00:41:16;;;;;;;59.28;37.60;;;;;;;11.27;84.01;100946.16;5088541;28;20028;-76
2024/01/01 00:43:43;;;;;;;60.05;36.83;;;;;;;11.17;84.24;100926.31;5087642;28;20507;-75
2024/01/01 00:46:09;;;;;;;64.80;35.05;;;;;;;11.22;83.62;100929.47;5086803;28;20572;-74
2024/01/01 00:48:35;;;;;;;54.28;35.15;;;;;;;11.31;83.80;100944.06;5086398;28;20039;-78
2024/01/01 00:51:00;;;;;;;50.22;34.85;;;;;;;11.26;83.29;100940.88;5087436;28;20024;-75
2024/01/01 00:53:26;;;;;;;57.47;38.70;;;;;;;11.19;83.95;100923.50;5087194;28;20490;-75
2024/01/01 00:55:51;;;;;;;63.97;38.42;;;;;;;11.33;83.94;100942.13;5087636;28;20111;-76
2024/01/01 00:58:17;;;;;;;59.85;39.03;;;;;;;11.33;83.60;100942.13;5087300;28;20039;-77
2024/01/01 01:00:42;;;;;;;54.47;38.05;;;;;;;11.34;84.06;100933.88;5087586;28;20524;-75
2024/01/01 01:03:08;;;;;;;59.78;36.88;;;;;;;11.40;84.25;100937.97;5089643;28;20048;-76
2024/01/01 01:05:33;;;;;;;72.53;36.95;;;;;;;11.41;84.10;100924.34;5089776;28;20035;-74
2024/01/01 01:07:59;;;;;;;64.38;40.65;;;;;;;11.37;83.94;100901.38;5090940;28;20024;-77
2024/01/01 01:10:25;;;;;;;56.30;36.47;;;;;;;11.43;84.45;100913.47;5091787;28;20032;-76
2024/01/01 01:12:53;;;;;;;60.40;39.88;;;;;;;11.47;84.41;100907.69;5091425;28;20035;-76
2024/01/01 01:15:19;;;;;;;64.18;38.03;;;;;;;11.51;84.00;100912.84;5091499;28;20107;-75
2024/01/01 01:17:45;;;;;;;54.90;37.60;;;;;;;11.51;83.71;100913.69;5091912;28;20032;-75
2024/01/01 01:20:11;;;;;;;52.63;37.03;;;;;;;11.51;84.02;100899.38;5091470;28;20024;-77
2024/01/01 01:22:36;;;;;;;59.00;36.70;;;;;;;11.58;84.13;100904.16;5074487;28;20047;-74
2024/01/01 01:25:02;;;;;;;58.90;41.25;;;;;;;11.51;84.30;100877.81;5098996;28;20451;-77
2024/01/01 01:27:28;;;;;;;63.13;37.83;;;;;;;11.56;84.21;100886.41;5097350;28;20078;-76
2024/01/01 01:29:53;;;;;;;56.53;35.15;;;;;;;11.70;84.46;100888.84;5098811;28;20032;-76
2024/01/01 01:32:19;;;;;;;59.15;37.95;;;;;;;11.70;84.91;100886.16;5096943;28;20020;-79
2024/01/01 01:34:44;;;;;;;59.55;38.58;;;;;;;11.79;84.88;100883.56;5090507;28;20023;-75
2024/01/01 01:37:10;;;;;;;55.20;36.08;;;;;;;11.81;85.09;100884.28;5090111;28;20365;-76
2024/01/01 01:39:35;;;;;;;50.20;34.80;;;;;;;11.89;85.58;100886.38;5090322;28;20036;-76
2024/01/01 01:42:01;;;;;;;61.35;37.35;;;;;;;11.91;85.51;100890.66;5090538;28;20430;-76
2024/01/01 01:44:28;;;;;;;50.65;37.05;;;;;;;11.82;85.52;100863.59;5090444;28;20024;-78
2024/01/01 01:46:54;;;;;;;59.60;38.88;;;;;;;11.86;85.36;100870.44;5090103;28;20348;-76
2024/01/01 01:49:19;;;;;;;57.75;35.13;;;;;;;11.65;87.39;100875.72;5090330;28;20050;-75
2024/01/01 01:51:48;;;;;;;52.80;34.03;;;;;;;11.63;87.90;100875.00;5090414;28;20028;-76
2024/01/01 01:54:14;;;;;;;54.13;36.83;;;;;;;11.64;88.32;100865.06;5070662;28;20043;-75
2024/01/01 01:56:40;;;;;;;51.97;35.63;;;;;;;11.46;89.26;100843.19;5090178;28;20028;-76
2024/01/01 01:59:06;;;;;;;53.25;37.15;;;;;;;11.46;89.71;100862.06;5089984;28;20032;-77
2024/01/01 02:01:32;;;;;;;56.78;39.13;;;;;;;11.38;90.65;100840.25;5090231;28;20028;-76
2024/01/01 02:03:58;;;;;;;55.75;39.88;;;;;;;11.24;90.90;100824.38;5090090;28;20564;-75
2024/01/01 02:06:24;;;;;;;54.88;38.15;;;;;;;10.88;91.56;100791.38;5090762;28;20550;-75
2024/01/01 02:08:50;;;;;;;55.55;39.60;;;;;;;11.23;92.20;100845.06;5091203;28;20024;-75
2024/01/01 02:11:15;;;;;;;52.78;37.63;;;;;;;11.26;92.84;100846.63;5089342;28;20089;-76
2024/01/01 02:13:41;;;;;;;54.42;39.95;;;;;;;11.22;92.55;100845.19;5090986;28;20032;-77
2024/01/01 02:16:06;;;;;;;60.28;40.22;;;;;;;11.26;93.22;100833.19;5099545;28;20024;-76
2024/01/01 02:18:32;;;;;;;54.88;37.90;;;;;;;11.40;92.74;100841.88;5094847;28;20027;-77
2024/01/01 02:20:57;;;;;;;62.65;40.13;;;;;;;11.40;92.58;100841.88;5089441;28;20024;-76
2024/01/01 02:23:25;;;;;;;64.55;42.53;;;;;;;11.40;93.00;100830.22;5088555;28;20464;-76
2024/01/01 02:25:50;;;;;;;60.38;40.33;;;;;;;11.51;92.97;100832.91;5089316;28;20533;-75
2024/01/01 02:28:16;;;;;;;61.15;40.25;;;;;;;11.62;92.33;100835.56;5089644;28;20024;-77
2024/01/01 02:30:42;;;;;;;63.45;40.90;;;;;;;11.73;91.80;100835.56;5089453;28;20032;-76
2024/01/01 02:33:11;;;;;;;55.28;38.80;;;;;;;11.74;91.41;100823.78;5089496;28;20028;-77
2024/01/01 02:35:37;;;;;;;60.10;41.38;;;;;;;11.82;90.69;100833.94;5089335;28;20616;-76
2024/01/01 02:38:04;;;;;;;59.05;39.78;;;;;;;11.86;89.81;100832.72;5087843;28;20115;-77
2024/01/01 02:40:32;;;;;;;60.65;39.13;;;;;;;11.89;89.52;100827.94;5089374;28;20193;-75
2024/01/01 02:43:00;;;;;;;59.70;38.83;;;;;;;11.79;89.22;100807.25;5088955;28;20039;-75
2024/01/01 02:45:27;;;;;;;56.00;36.92;;;;;;;11.93;88.83;100823.97;5086782;28;20066;-75
2024/01/01 02:47:53;;;;;;;57.25;38.10;;;;;;;11.67;88.32;100778.59;5089382;28;20040;-77
2024/01/01 02:50:20;;;;;;;54.58;35.60;;;;;;;11.80;88.17;100807.13;5089087;28;20127;-75
2024/01/01 02:52:46;;;;;;;57.33;38.83;;;;;;;11.88;89.26;100812.72;5089384;28;20020;-77
2024/01/01 02:55:12;;;;;;;65.70;40.38;;;;;;;11.88;89.17;100815.44;5086348;28;20755;-76
2024/01/01 02:57:37;;;;;;;59.30;38.85;;;;;;;11.88;88.89;100810.03;5086884;28;20067;-76
2024/01/01 03:00:03;;;;;;;60.60;40.25;;;;;;;11.75;88.79;100781.53;5087408;28;20040;-76
2024/01/01 03:02:29;;;;;;;60.97;39.75;;;;;;;11.87;88.81;100811.00;5086878;28;20024;-76
2024/01/01 03:04:54;;;;;;;60.00;39.42;;;;;;;11.87;88.88;100805.63;5089178;28;20051;-76
2024/01/01 03:07:21;;;;;;;52.92;37.90;;;;;;;11.85;88.95;100801.34;5095471;28;20077;-75
2024/01/01 03:09:46;;;;;;;72.35;40.45;;;;;;;11.78;88.41;100792.91;5092632;28;20040;-74
2024/01/01 03:12:12;;;;;;;61.72;37.90;;;;;;;11.95;88.83;100810.38;5069174;28;20035;-75
2024/01/01 03:14:37;;;;;;;60.75;38.47;;;;;;;11.95;88.01;100805.84;5085981;28;20114;-75
2024/01/01 03:17:03;;;;;;;62.30;38.28;;;;;;;11.91;87.98;100804.41;5085924;28;20102;-75
2024/01/01 03:19:28;;;;;;;63.53;38.83;;;;;;;11.86;88.10;100790.44;5086107;28;20480;-75
2024/01/01 03:21:54;;;;;;;59.83;38.28;;;;;;;11.79;88.58;100783.00;5085831;28;20059;-74
2024/01/01 03:24:19;;;;;;;60.30;37.03;;;;;;;11.86;88.72;100800.38;5085664;28;20032;-75
2024/01/01 03:26:45;;;;;;;62.65;38.95;;;;;;;11.85;88.93;100791.44;5087308;28;20120;-75
2024/01/01 03:29:10;;;;;;;64.18;40.55;;;;;;;11.86;88.66;100785.03;5088384;28;20491;-76
2024/01/01 03:31:36;;;;;;;63.50;39.40;;;;;;;11.79;88.46;100774.91;5088324;28;20032;-75
2024/01/01 03:34:01;;;;;;;68.35;38.95;;;;;;;11.84;89.22;100789.72;5088191;28;20493;-76
2024/01/01 03:36:27;;;;;;;62.17;38.70;;;;;;;11.74;88.81;100763.69;5088177;28;20089;-77
2024/01/01 03:38:52;;;;;;;61.63;38.85;;;;;;;11.78;88.44;100774.06;5088246;28;20138;-75
2024/01/01 03:41:18;;;;;;;63.42;38.88;;;;;;;11.75;88.06;100771.63;5087232;28;20039;-76
2024/01/01 03:43:43;;;;;;;62.28;38.05;;;;;;;11.71;88.33;100772.03;5087036;28;20053;-75
2024/01/01 03:46:09;;;;;;;61.22;36.90;;;;;;;11.71;88.60;100762.06;5088408;28;20024;-74
2024/01/01 03:48:35;;;;;;;53.50;35.63;;;;;;;11.74;88.45;100769.91;5069003;28;20417;-76
2024/01/01 03:51:01;;;;;;;56.30;36.00;;;;;;;11.59;88.18;100744.22;5088814;28;20032;-78
2024/01/01 03:53:26;;;;;;;53.35;36.20;;;;;;;11.69;89.02;100760.47;5088974;28;20116;-77
2024/01/01 03:55:52;;;;;;;62.30;37.67;;;;;;;11.57;88.86;100746.19;5088077;28;20024;-77
2024/01/01 03:58:18;;;;;;;54.50;37.50;;;;;;;11.70;88.64;100762.22;5093803;28;20024;-76
2024/01/01 04:00:44;;;;;;;61.47;37.35;;;;;;;11.66;88.03;100756.19;5096878;28;20024;-74
2024/01/01 04:03:09;;;;;;;56.92;36.38;;;;;;;11.74;88.43;100764.50;5088210;28;20613;-76
2024/01/01 04:05:35;;;;;;;56.17;35.72;;;;;;;11.73;87.84;100752.03;5088003;28;20027;-76
2024/01/01 04:08:00;;;;;;;58.63;35.20;;;;;;;11.79;88.19;100756.91;5088073;28;20031;-74
2024/01/01 04:10:26;;;;;;;57.33;35.72;;;;;;;11.69;87.43;100739.78;5088133;28;20024;-76
2024/01/01 04:12:51;;;;;;;55.78;35.25;;;;;;;11.62;87.41;100738.56;5088157;28;20484;-76
2024/01/01 04:15:17;;;;;;;52.67;35.67;;;;;;;11.64;87.44;100736.63;5087619;28;20024;-76
2024/01/01 04:17:42;;;;;;;53.17;35.70;;;;;;;11.77;87.15;100753.47;5087849;28;20059;-76
2024/01/01 04:20:10;;;;;;;56.47;35.55;;;;;;;11.79;87.33;100748.84;5088060;28;20024;-75
2024/01/01 04:22:37;;;;;;;50.03;33.58;;;;;;;11.81;87.22;100748.69;5087874;28;20028;-75
2024/01/01 04:25:03;;;;;;;56.13;36.60;;;;;;;11.72;87.34;100731.47;5087850;28;20028;-76
2024/01/01 04:27:29;;;;;;;54.90;33.67;;;;;;;11.83;87.38;100752.97;5087880;28;20036;-76
2024/01/01 04:29:54;;;;;;;72.85;36.63;;;;;;;11.79;86.85;100729.97;5087863;28;20102;-76
2024/01/01 04:32:20;;;;;;;57.22;35.60;;;;;;;11.83;86.81;100752.97;5086258;28;20032;-75
2024/01/01 04:34:45;;;;;;;65.20;37.30;;;;;;;11.77;86.77;100748.09;5087492;28;20024;-76
2024/01/01 04:37:11;;;;;;;60.47;37.38;;;;;;;11.75;86.71;100749.22;5088724;28;20032;-77
2024/01/01 04:39:36;;;;;;;53.38;36.85;;;;;;;11.76;87.16;100743.72;5092114;28;20020;-76
2024/01/01 04:42:03;;;;;;;62.55;35.95;;;;;;;11.80;87.68;100758.59;5092344;28;20441;-76
2024/01/01 04:44:29;;;;;;;61.42;37.53;;;;;;;11.71;87.25;100734.31;5091880;28;20509;-77
2024/01/01 04:46:54;;;;;;;55.75;37.55;;;;;;;11.76;87.43;100741.00;5093168;28;20052;-74
2024/01/01 04:49:20;;;;;;;58.95;37.58;;;;;;;11.76;87.83;100732.94;5098352;28;20032;-74
2024/01/01 04:51:45;;;;;;;67.43;38.83;;;;;;;11.75;87.50;100733.91;5098526;28;20028;-75
2024/01/01 04:54:11;;;;;;;63.92;37.58;;;;;;;11.66;87.47;100718.47;5091701;28;20028;-75
2024/01/01 04:56:36;;;;;;;61.53;38.22;;;;;;;11.81;87.35;100738.78;5091393;28;20020;-75
2024/01/01 04:59:03;;;;;;;63.00;39.88;;;;;;;11.76;87.33;100730.22;5091397;28;20031;-75
2024/01/01 05:01:28;;;;;;;80.80;46.95;;;;;;;11.84;87.52;100733.13;5091199;28;20028;-77
2024/01/01 05:03:54;;;;;;;84.75;53.47;;;;;;;11.83;87.51;100730.56;5091497;28;20032;-74
2024/01/01 05:06:19;;;;;;;120.30;74.25;;;;;;;11.78;87.31;100722.88;5091013;28;20046;-75
2024/01/01 05:08:45;;;;;;;120.55;81.13;;;;;;;11.72;86.83;100733.31;5091251;28;21187;-74
2024/01/01 05:11:10;;;;;;;91.32;62.42;;;;;;;11.68;87.66;100716.50;5090884;28;20058;-75
2024/01/01 05:13:37;;;;;;;91.28;59.83;;;;;;;11.72;88.24;100723.38;5091105;28;20036;-75
2024/01/01 05:16:07;;;;;;;71.03;49.40;;;;;;;11.70;88.23;100722.66;5090802;28;20024;-75
2024/01/01 05:18:33;;;;;;;70.75;47.38;;;;;;;11.69;88.33;100728.13;5090784;28;20024;-78
2024/01/01 05:20:58;;;;;;;71.40;44.28;;;;;;;11.68;89.34;100727.28;5090908;28;20433;-76
2024/01/01 05:23:24;;;;;;;71.32;44.83;;;;;;;11.71;88.59;100727.06;5090916;28;20058;-76
2024/01/01 05:25:49;;;;;;;76.57;45.17;;;;;;;11.70;89.49;100725.38;5090995;28;20059;-76
2024/01/01 05:28:15;;;;;;;73.85;42.75;;;;;;;11.61;89.53;100704.56;5089785;28;20016;-74
2024/01/01 05:30:40;;;;;;;67.90;42.47;;;;;;;11.78;89.38;100717.47;5091597;28;20032;-75
2024/01/01 05:33:06;;;;;;;86.18;48.20;;;;;;;11.72;89.56;100706.34;5091819;28;20403;-74
2024/01/01 05:35:31;;;;;;;69.38;45.00;;;;;;;11.81;89.78;100711.81;5091172;28;20121;-77
2024/01/01 05:37:57;;;;;;;70.72;43.47;;;;;;;11.80;89.44;100715.50;5090100;28;20043;-76
2024/01/01 05:40:22;;;;;;;61.35;41.47;;;;;;;11.81;89.81;100717.22;5097178;28;20436;-76
2024/01/01 05:42:48;;;;;;;60.58;42.53;;;;;;;11.88;89.65;100712.16;5096019;28;20491;-76
2024/01/01 05:45:13;;;;;;;72.97;44.13;;;;;;;11.84;90.02;100706.16;5090336;28;20031;-77
2024/01/01 05:47:39;;;;;;;79.80;47.20;;;;;;;11.81;89.84;100700.19;5090215;28;20513;-78
2024/01/01 05:50:05;;;;;;;68.25;42.80;;;;;;;11.83;89.92;100692.84;5090354;28;20032;-76
2024/01/01 05:52:31;;;;;;;66.38;43.47;;;;;;;11.93;89.95;100697.28;5090211;28;20158;-76
2024/01/01 05:54:56;;;;;;;70.72;44.78;;;;;;;11.94;89.99;100696.31;5089943;28;20085;-75
2024/01/01 05:57:22;;;;;;;79.30;46.50;;;;;;;12.04;89.93;100712.56;5090107;28;20028;-78
2024/01/01 05:59:47;;;;;;;86.32;47.60;;;;;;;12.05;89.53;100713.41;5089948;28;20132;-75
2024/01/01 06:02:13;;;;;;;68.80;44.30;;;;;;;12.04;89.91;100707.16;5090193;28;20095;-78
2024/01/01 06:04:38;;;;;;;70.18;46.85;;;;;;;12.07;89.38;100716.81;5090050;28;20028;-76
2024/01/01 06:07:04;;;;;;;77.55;45.33;;;;;;;12.07;89.46;100717.69;5089985;28;20024;-79
2024/01/01 06:09:29;;;;;;;73.50;45.10;;;;;;;12.16;89.93;100724.13;5090101;28;20035;-76
2024/01/01 06:11:55;;;;;;;84.03;49.08;;;;;;;12.16;89.48;100721.44;5089697;28;20043;-77
2024/01/01 06:14:20;;;;;;;75.22;47.22;;;;;;;12.17;89.09;100718.59;5089860;28;20423;-76
2024/01/01 06:16:46;;;;;;;79.82;47.45;;;;;;;12.24;89.14;100717.06;5089476;28;20024;-77
2024/01/01 06:19:12;;;;;;;73.75;47.30;;;;;;;12.26;89.21;100712.38;5090161;28;20039;-75
2024/01/01 06:21:38;;;;;;;77.60;47.05;;;;;;;12.33;89.08;100724.38;5090315;28;20020;-75
2024/01/01 06:24:04;;;;;;;75.43;48.25;;;;;;;12.28;89.20;100701.47;5090255;28;20541;-76
2024/01/01 06:26:30;;;;;;;72.45;46.63;;;;;;;12.44;88.44;100718.03;5087626;28;20155;-76
2024/01/01 06:28:55;;;;;;;79.78;48.47;;;;;;;12.50;88.81;100720.19;5091233;28;20099;-74
2024/01/01 06:31:21;;;;;;;76.88;50.45;;;;;;;12.55;88.89;100712.53;5101538;28;20506;-75
2024/01/01 06:33:46;;;;;;;92.40;51.50;;;;;;;12.50;88.73;100690.53;5097209;28;20099;-75
2024/01/01 06:36:12;;;;;;;78.80;49.80;;;;;;;12.58;89.28;100698.78;5089642;28;20031;-75
2024/01/01 06:38:37;;;;;;;83.30;53.83;;;;;;;12.61;88.82;100693.13;5089643;28;20046;-75
2024/01/01 06:41:03;;;;;;;84.97;54.53;;;;;;;12.72;89.53;100694.88;5089392;28;20024;-75
2024/01/01 06:43:29;;;;;;;84.35;52.97;;;;;;;12.90;89.96;100704.84;5089224;28;20028;-75
2024/01/01 06:45:54;;;;;;;81.78;52.63;;;;;;;13.01;89.78;100703.91;5089335;28;20024;-76
2024/01/01 06:48:20;;;;;;;88.10;54.83;;;;;;;13.06;89.30;100690.81;5089556;28;20024;-75
2024/01/01 06:50:45;;;;;;;91.82;57.08;;;;;;;13.18;89.21;100699.72;5088800;28;20032;-75
2024/01/01 06:53:11;;;;;;;84.78;55.33;;;;;;;13.15;89.52;100689.19;5089280;28;20053;-75
2024/01/01 06:55:36;;;;;;;93.22;56.88;;;;;;;13.13;90.12;100700.13;5087365;28;20039;-75
2024/01/01 06:58:02;;;;;;;96.00;56.83;;;;;;;12.92;91.10;100681.28;5088919;28;20024;-76
2024/01/01 07:00:28;;;;;;;84.95;53.90;;;;;;;13.20;91.57;100697.72;5088166;28;20148;-76
2024/01/01 07:02:54;;;;;;;90.55;57.45;;;;;;;13.31;91.62;100698.44;5089114;28;20028;-75
2024/01/01 07:05:21;;;;;;;87.97;55.00;;;;;;;13.37;91.32;100688.91;5088833;28;20419;-75
2024/01/01 07:07:46;;;;;;;84.88;53.28;;;;;;;13.49;91.15;100701.28;5088673;28;20043;-75
2024/01/01 07:10:12;;;;;;;84.38;54.97;;;;;;;13.47;90.92;100676.28;5086559;28;20036;-74
2024/01/01 07:12:37;;;;;;;85.18;48.50;;;;;;;13.52;90.47;100692.91;5088848;28;20480;-75
2024/01/01 07:15:03;;;;;;;78.18;49.15;;;;;;;13.55;90.01;100696.19;5089898;28;20031;-77
2024/01/01 07:17:29;;;;;;;82.13;52.00;;;;;;;13.49;89.65;100680.53;5089021;28;20028;-79
2024/01/01 07:19:55;;;;;;;74.70;46.90;;;;;;;13.58;89.63;100690.50;5090300;28;20024;-76
2024/01/01 07:22:20;;;;;;;81.30;47.30;;;;;;;13.65;89.46;100693.47;5100173;28;20020;-75
2024/01/01 07:24:46;;;;;;;83.45;49.63;;;;;;;13.60;89.26;100685.81;5097981;28;20020;-76
2024/01/01 07:27:12;;;;;;;83.28;49.00;;;;;;;13.65;89.05;100696.19;5085687;28;20052;-74
2024/01/01 07:29:40;;;;;;;73.55;49.00;;;;;;;13.69;88.84;100703.00;5088532;28;20593;-75
2024/01/01 07:32:06;;;;;;;77.85;48.33;;;;;;;13.69;88.92;100697.59;5088337;28;20027;-75
2024/01/01 07:34:31;;;;;;;76.28;49.83;;;;;;;13.66;88.96;100692.50;5088080;28;20026;-76
2024/01/01 07:36:57;;;;;;;69.38;45.58;;;;;;;13.66;88.58;100689.78;5088216;28;20042;-77
2024/01/01 07:39:25;;;;;;;68.00;42.60;;;;;;;13.76;88.50;100692.50;5087780;28;20073;-75
2024/01/01 07:41:51;;;;;;;70.40;45.70;;;;;;;13.64;88.16;100671.00;5068682;28;20059;-75
2024/01/01 07:44:16;;;;;;;80.05;48.13;;;;;;;13.70;88.17;100693.88;5087787;28;20520;-76
2024/01/01 07:46:42;;;;;;;67.60;45.47;;;;;;;13.73;87.71;100701.72;5088078;28;20059;-78
2024/01/01 07:49:08;;;;;;;73.82;44.72;;;;;;;13.73;88.05;100696.31;5087899;28;20036;-74
2024/01/01 07:51:34;;;;;;;68.10;45.22;;;;;;;13.75;87.87;100701.59;5088002;28;20059;-75
2024/01/01 07:54:00;;;;;;;75.63;46.55;;;;;;;13.75;87.60;100694.34;5087914;28;20020;-75
2024/01/01 07:56:27;;;;;;;76.30;47.08;;;;;;;13.77;87.61;100699.56;5087457;28;20476;-75
2024/01/01 07:58:53;;;;;;;71.22;44.63;;;;;;;13.61;86.96;100692.03;5088349;28;20596;-76
2024/01/01 08:01:19;;;;;;;74.57;47.80;;;;;;;13.64;87.04;100697.16;5088043;28;20028;-75
2024/01/01 08:03:45;;;;;;;81.85;49.17;;;;;;;13.59;87.22;100697.59;5088404;28;20027;-75
2024/01/01 08:06:10;;;;;;;74.13;45.80;;;;;;;13.53;87.67;100700.03;5088456;28;20036;-75
2024/01/01 08:08:36;;;;;;;74.38;47.17;;;;;;;13.55;87.68;100681.81;5088529;28;20111;-78
2024/01/01 08:11:01;;;;;;;85.35;50.63;;;;;;;13.55;87.77;100681.81;5088283;28;20036;-75
2024/01/01 08:13:27;;;;;;;75.13;48.40;;;;;;;13.69;87.87;100675.13;5094484;28;20024;-75
2024/01/01 08:15:53;;;;;;;78.10;47.30;;;;;;;13.71;87.92;100665.88;5093750;28;20032;-75
2024/01/01 08:18:18;;;;;;;78.90;49.03;;;;;;;13.80;87.60;100665.00;5087740;28;20129;-76
2024/01/01 08:20:44;;;;;;;81.00;49.25;;;;;;;14.01;87.24;100678.34;5088051;28;20028;-75
2024/01/01 08:23:10;;;;;;;81.60;48.92;;;;;;;14.16;87.16;100677.72;5087498;28;20097;-74
2024/01/01 08:25:36;;;;;;;75.82;47.38;;;;;;;14.25;86.45;100669.75;5087816;28;20040;-74
2024/01/01 08:28:01;;;;;;;79.90;47.22;;;;;;;14.22;86.27;100659.22;5087612;28;20027;-75
2024/01/01 08:30:27;;;;;;;73.20;46.10;;;;;;;14.50;85.72;100674.53;5087699;28;20035;-78
2024/01/01 08:32:52;;;;;;;71.38;44.53;;;;;;;14.55;84.98;100673.09;5087620;28;20032;-75
2024/01/01 08:35:18;;;;;;;65.65;42.03;;;;;;;14.62;84.15;100681.44;5087316;28;20468;-75
2024/01/01 08:37:44;;;;;;;72.85;43.88;;;;;;;14.67;84.11;100676.47;5087482;28;20141;-76
2024/01/01 08:40:10;;;;;;;59.38;41.05;;;;;;;14.75;83.47;100679.25;5087021;28;20107;-75
2024/01/01 08:42:36;;;;;;;71.43;42.25;;;;;;;14.82;83.13;100664.13;5087751;28;20035;-77
2024/01/01 08:45:06;;;;;;;68.47;42.22;;;;;;;14.95;83.02;100663.75;5087663;28;20032;-78
2024/01/01 08:47:31;;;;;;;66.60;42.72;;;;;;;14.98;82.07;100669.69;5087742;28;20089;-77
2024/01/01 08:49:57;;;;;;;67.63;43.22;;;;;;;15.06;81.67;100648.16;5086427;28;20032;-76
2024/01/01 08:52:22;;;;;;;63.22;42.47;;;;;;;15.09;81.48;100639.72;5087610;28;20028;-76
2024/01/01 08:54:48;;;;;;;67.45;42.40;;;;;;;15.12;80.70;100628.56;5087850;28;20036;-76
2024/01/01 08:57:14;;;;;;;65.13;41.03;;;;;;;15.11;80.09;100623.28;5089145;28;20036;-77
2024/01/01 08:59:40;;;;;;;56.15;37.38;;;;;;;15.34;80.08;100642.66;5088180;28;20020;-76
2024/01/01 09:02:06;;;;;;;50.92;34.88;;;;;;;15.36;79.47;100627.94;5088503;28;20093;-78
2024/01/01 09:04:32;;;;;;;55.97;35.85;;;;;;;15.51;79.58;100634.56;5099754;28;20031;-77
2024/01/01 09:07:00;;;;;;;57.13;38.30;;;;;;;15.53;79.44;100637.13;5096082;28;20028;-75
2024/01/01 09:09:27;;;;;;;55.42;35.65;;;;;;;15.47;78.59;100616.88;5087244;28;20028;-75
2024/01/01 09:11:52;;;;;;;53.00;35.85;;;;;;;15.66;78.44;100615.84;5087519;28;20165;-75
2024/01/01 09:14:18;;;;;;;54.20;35.75;;;;;;;15.68;77.84;100622.00;5087423;28;20500;-79
2024/01/01 09:16:44;;;;;;;52.33;35.78;;;;;;;15.51;77.45;100580.34;5087213;28;20028;-76
2024/01/01 09:19:09;;;;;;;60.35;36.55;;;;;;;15.79;77.62;100605.47;5087054;28;21128;-76
2024/01/01 09:21:35;;;;;;;52.83;34.63;;;;;;;15.76;77.21;100592.22;5087094;28;20032;-76
2024/01/01 09:24:01;;;;;;;58.88;34.30;;;;;;;15.86;76.73;100590.25;5089166;28;20024;-76
2024/01/01 09:26:29;;;;;;;63.45;35.65;;;;;;;15.93;76.50;100591.28;5091052;28;20055;-76
2024/01/01 09:28:56;;;;;;;58.63;36.65;;;;;;;15.99;75.93;100577.09;5090845;28;20024;-77
2024/01/01 09:31:22;;;;;;;52.25;33.42;;;;;;;16.11;75.65;100578.56;5093298;28;20035;-76
2024/01/01 09:33:47;;;;;;;56.75;34.88;;;;;;;16.12;75.38;100563.94;5092437;28;20028;-76
2024/01/01 09:36:13;;;;;;;48.22;31.10;;;;;;;16.22;74.70;100575.53;5091026;28;20039;-75
2024/01/01 09:38:39;;;;;;;61.90;37.20;;;;;;;16.16;74.45;100565.34;5090826;28;20020;-76
2024/01/01 09:41:09;;;;;;;54.25;33.55;;;;;;;16.20;74.15;100566.72;5090856;28;20032;-77
2024/01/01 09:43:34;;;;;;;52.33;33.30;;;;;;;15.99;74.87;100562.72;5090565;28;20503;-75
2024/01/01 09:46:00;;;;;;;55.58;33.22;;;;;;;16.00;75.43;100562.53;5088689;28;20131;-76
2024/01/01 09:48:25;;;;;;;69.60;38.40;;;;;;;16.10;75.26;100549.69;5091750;28;20509;-77
2024/01/01 09:50:51;;;;;;;56.35;36.83;;;;;;;16.09;75.19;100558.84;5090757;28;20098;-80
2024/01/01 09:53:17;;;;;;;57.38;34.42;;;;;;;16.23;75.15;100555.53;5091683;28;20016;-75
2024/01/01 09:55:50;;;;;;;71.65;36.88;;;;;;;16.28;74.47;100547.75;5099137;28;20522;-75
2024/01/01 09:58:16;;;;;;;50.28;32.35;;;;;;;16.26;73.92;100528.06;5096258;28;20035;-77
2024/01/01 10:00:41;;;;;;;40.08;27.85;;;;;;;16.30;73.48;100540.28;5090040;28;20028;-76
2024/01/01 10:03:10;;;;;;;44.53;28.88;;;;;;;16.22;73.56;100537.53;5090135;28;20028;-78
2024/01/01 10:05:36;;;;;;;44.60;29.10;;;;;;;16.25;73.96;100537.22;5089630;28;20028;-77
2024/01/01 10:08:13;;;;;;;41.42;28.40;;;;;;;16.22;73.71;100531.25;5090106;28;20024;-78
2024/01/01 10:10:39;;;;;;;40.25;24.65;;;;;;;16.22;73.52;100532.13;5089988;28;20042;-77
2024/01/01 10:13:15;;;;;;;35.58;25.35;;;;;;;16.07;73.54;100517.47;5090164;28;20029;-75
2024/01/01 10:15:41;;;;;;;39.58;23.90;;;;;;;15.84;73.64;100494.63;5089734;28;20059;-76
2024/01/01 10:18:12;;;;;;;40.13;25.70;;;;;;;15.96;74.47;100497.94;5090106;28;20567;-76
2024/01/01 10:20:39;;;;;;;38.03;25.13;;;;;;;15.91;73.72;100501.09;5089851;28;20165;-76
2024/01/01 10:23:20;;;;;;;36.90;24.63;;;;;;;15.96;74.59;100496.03;5089952;28;20028;-75
2024/01/01 10:25:45;;;;;;;33.00;20.10;;;;;;;16.01;74.04;100484.72;5089116;28;20451;-77
2024/01/01 10:28:15;;;;;;;38.03;24.25;;;;;;;16.15;74.11;100493.06;5090483;28;20021;-75
2024/01/01 10:30:43;;;;;;;36.15;20.77;;;;;;;16.21;73.35;100480.72;5088414;28;20127;-76
2024/01/01 10:33:10;;;;;;;35.60;21.00;;;;;;;16.27;72.48;100472.75;5088573;28;20377;-77
2024/01/01 10:35:38;;;;;;;36.65;20.30;;;;;;;16.19;71.96;100483.59;5089090;28;20673;-77
2024/01/01 10:38:04;;;;;;;26.73;18.15;;;;;;;16.37;71.85;100474.47;5090269;28;20024;-75
2024/01/01 10:40:29;;;;;;;28.80;17.67;;;;;;;16.24;70.82;100462.22;5090700;28;20131;-77
2024/01/01 10:42:57;;;;;;;28.83;19.05;;;;;;;16.22;71.54;100442.56;5090485;28;20031;-75
2024/01/01 10:45:22;;;;;;;28.70;19.70;;;;;;;16.37;70.86;100431.06;5094791;28;20034;-77
2024/01/01 10:47:49;;;;;;;29.38;18.98;;;;;;;16.64;69.83;100430.78;5098928;28;20055;-74
2024/01/01 10:50:31;;;;;;;22.40;16.38;;;;;;;16.89;68.89;100443.38;5093136;28;20411;-77
2024/01/01 10:53:08;;;;;;;28.67;18.92;;;;;;;16.98;68.33;100447.78;5089061;28;20555;-77
2024/01/01 10:55:52;;;;;;;29.13;20.42;;;;;;;17.01;67.81;100438.44;5089122;28;20036;-77
2024/01/01 10:58:59;;;;;;;29.10;18.58;;;;;;;17.12;67.83;100428.09;5089020;28;20113;-79
2024/01/01 11:01:25;;;;;;;30.70;18.27;;;;;;;17.14;67.26;100419.75;5046155;28;20048;-78
2024/01/01 11:03:51;;;;;;;30.75;18.08;;;;;;;17.23;66.49;100418.72;5046445;28;20572;-76
2024/01/01 11:06:31;;;;;;;25.63;18.20;;;;;;;17.25;66.00;100416.66;5045868;28;20234;-76